Time;durP1;ratioP1;P1;durP2;ratioP2;P2;SDS_P1;SDS_P2;PMS_P1;PMS_P2;Temp;Humidity;BMP_temperature;BMP_pressure;BME280_temperature;BME280_humidity;BME280_pressure;Samples;Min_cycle;Max_cycle;Signal;HPM_P1;HPM_P2
2022/08/23 00:02:12;;;;;;;10.90;2.33;;;;;;;;;;5281814;28;20119;-69
2022/08/23 00:04:45;;;;;;;11.03;2.07;;;;;;;;;;5281344;28;20780;-69
2022/08/23 00:07:16;;;;;;;7.97;2.25;;;;;;;;;;5281039;28;20385;-68
2022/08/23 00:09:48;;;;;;;8.07;2.47;;;;;;;;;;5281117;28;20048;-68
2022/08/23 00:12:21;;;;;;;4.45;2.00;;;;;;;;;;5281787;28;20527;-69
2022/08/23 00:14:53;;;;;;;5.38;1.73;;;;;;;;;;5280180;28;20020;-68
2022/08/23 00:17:24;;;;;;;10.43;2.17;;;;;;;;;;5281668;28;20024;-69
2022/08/23 00:19:56;;;;;;;9.83;2.20;;;;;;;;;;5281494;28;20035;-68
2022/08/23 00:22:27;;;;;;;8.65;2.10;;;;;;;;;;5280367;28;20629;-69
2022/08/23 00:24:58;;;;;;;8.30;2.10;;;;;;;;;;5281571;28;20051;-68
2022/08/23 00:27:29;;;;;;;8.57;2.43;;;;;;;;;;5281115;28;20313;-68
2022/08/23 00:30:01;;;;;;;10.50;3.13;;;;;;;;;;5280776;28;20330;-68
2022/08/23 00:32:34;;;;;;;7.60;2.30;;;;;;;;;;5281072;28;20278;-68
2022/08/23 00:35:06;;;;;;;6.93;2.40;;;;;;;;;;5280641;28;20038;-68
2022/08/23 00:37:38;;;;;;;6.82;2.15;;;;;;;;;;5281117;28;20479;-68
2022/08/23 00:40:10;;;;;;;8.40;2.47;;;;;;;;;;5281457;28;20017;-68
2022/08/23 00:48:37;;;;;;;7.25;2.20;;;;;;;;;;5281097;28;20029;-68
2022/08/23 00:51:17;;;;;;;7.78;2.28;;;;;;;;;;5280640;28;20074;-68
2022/08/23 00:53:52;;;;;;;7.60;2.20;;;;;;;;;;5280629;28;20032;-68
2022/08/23 00:56:25;;;;;;;9.55;2.33;;;;;;;;;;5280252;28;20099;-68
2022/08/23 00:58:56;;;;;;;8.57;3.03;;;;;;;;;;5281423;28;20471;-69
2022/08/23 01:01:28;;;;;;;9.13;2.60;;;;;;;;;;5280359;28;20064;-68
2022/08/23 01:03:59;;;;;;;11.27;2.95;;;;;;;;;;5280349;28;20036;-68
2022/08/23 01:06:33;;;;;;;8.43;3.38;;;;;;;;;;5280376;28;20460;-68
2022/08/23 01:09:06;;;;;;;8.48;2.90;;;;;;;;;;5281326;28;20021;-68
2022/08/23 01:11:46;;;;;;;5.88;2.63;;;;;;;;;;5280040;28;20467;-68
2022/08/23 01:14:21;;;;;;;6.50;2.78;;;;;;;;;;5281062;28;20466;-69
2022/08/23 01:16:56;;;;;;;7.80;2.90;;;;;;;;;;5280443;28;20028;-68
2022/08/23 01:19:29;;;;;;;7.45;2.65;;;;;;;;;;5279545;28;20107;-68
2022/08/23 01:22:10;;;;;;;8.60;2.65;;;;;;;;;;5280979;28;20100;-69
2022/08/23 01:24:42;;;;;;;6.53;2.90;;;;;;;;;;5279538;28;20099;-68
2022/08/23 01:27:13;;;;;;;6.18;2.42;;;;;;;;;;5281650;28;20472;-68
2022/08/23 01:29:45;;;;;;;9.23;2.78;;;;;;;;;;5284184;28;20052;-69
2022/08/23 01:32:16;;;;;;;4.25;1.90;;;;;;;;;;5284201;28;20357;-68
2022/08/23 01:34:47;;;;;;;11.30;3.15;;;;;;;;;;5284113;28;20103;-68
2022/08/23 01:37:19;;;;;;;6.53;2.38;;;;;;;;;;5284808;28;20485;-68
2022/08/23 01:39:51;;;;;;;10.35;2.80;;;;;;;;;;5282756;28;20346;-68
2022/08/23 01:42:23;;;;;;;5.95;2.20;;;;;;;;;;5284809;28;20104;-68
2022/08/23 01:44:54;;;;;;;6.72;2.47;;;;;;;;;;5284226;28;20110;-68
2022/08/23 01:47:26;;;;;;;6.25;2.22;;;;;;;;;;5283229;28;20480;-68
2022/08/23 01:49:57;;;;;;;7.13;2.80;;;;;;;;;;5284431;28;20020;-68
2022/08/23 01:52:28;;;;;;;4.40;2.07;;;;;;;;;;5283038;28;20440;-68
2022/08/23 01:55:00;;;;;;;6.72;2.40;;;;;;;;;;5284547;28;20295;-68
2022/08/23 01:57:32;;;;;;;7.15;2.38;;;;;;;;;;5283725;28;20091;-68
2022/08/23 02:00:05;;;;;;;6.82;2.10;;;;;;;;;;5283473;28;20456;-68
2022/08/23 02:02:36;;;;;;;6.90;1.92;;;;;;;;;;5283472;28;20121;-68
2022/08/23 02:05:08;;;;;;;5.97;2.20;;;;;;;;;;5284171;28;20032;-68
2022/08/23 02:07:39;;;;;;;6.40;2.65;;;;;;;;;;5282502;28;20471;-68
2022/08/23 02:10:10;;;;;;;9.03;2.77;;;;;;;;;;5284263;28;20012;-68
2022/08/23 02:12:42;;;;;;;6.28;2.65;;;;;;;;;;5283496;28;20270;-68
2022/08/23 02:15:14;;;;;;;9.50;2.90;;;;;;;;;;5283162;28;20017;-68
2022/08/23 02:17:45;;;;;;;8.18;2.50;;;;;;;;;;5283580;28;20027;-69
2022/08/23 02:20:16;;;;;;;10.57;3.10;;;;;;;;;;5283780;28;20078;-67
2022/08/23 02:22:47;;;;;;;6.15;2.50;;;;;;;;;;5282936;28;20025;-68
2022/08/23 02:25:18;;;;;;;7.55;3.00;;;;;;;;;;5284070;28;20082;-68
2022/08/23 02:27:50;;;;;;;5.43;3.22;;;;;;;;;;5282214;28;20321;-68
2022/08/23 02:30:21;;;;;;;6.67;2.60;;;;;;;;;;5283901;28;20029;-68
2022/08/23 02:32:52;;;;;;;7.53;2.30;;;;;;;;;;5283343;28;20271;-68
2022/08/23 02:35:24;;;;;;;6.38;3.10;;;;;;;;;;5282667;28;20081;-68
2022/08/23 02:37:55;;;;;;;8.55;3.05;;;;;;;;;;5282983;28;20265;-68
2022/08/23 02:40:27;;;;;;;9.23;3.60;;;;;;;;;;5282907;28;20032;-68
2022/08/23 02:42:58;;;;;;;10.35;3.15;;;;;;;;;;5282841;28;20346;-67
2022/08/23 02:45:30;;;;;;;7.50;3.38;;;;;;;;;;5282609;28;20021;-68
2022/08/23 02:48:01;;;;;;;7.50;2.85;;;;;;;;;;5283317;28;20033;-67
2022/08/23 02:50:32;;;;;;;6.88;3.17;;;;;;;;;;5281885;28;20021;-68
2022/08/23 02:53:04;;;;;;;7.82;3.63;;;;;;;;;;5283499;28;20443;-68
2022/08/23 02:55:35;;;;;;;7.97;3.08;;;;;;;;;;5282025;28;20017;-68
2022/08/23 02:58:06;;;;;;;9.27;3.60;;;;;;;;;;5283097;28;20048;-68
2022/08/23 03:00:38;;;;;;;7.43;3.28;;;;;;;;;;5282531;28;20346;-68
2022/08/23 03:03:09;;;;;;;7.65;3.20;;;;;;;;;;5282024;28;20183;-68
2022/08/23 03:05:40;;;;;;;6.30;3.30;;;;;;;;;;5282440;28;20016;-68
2022/08/23 03:08:11;;;;;;;11.02;3.30;;;;;;;;;;5283086;28;20401;-68
2022/08/23 03:10:43;;;;;;;5.38;3.20;;;;;;;;;;5281543;28;20024;-68
2022/08/23 03:13:15;;;;;;;6.20;2.97;;;;;;;;;;5282834;28;20025;-67
2022/08/23 03:15:46;;;;;;;10.90;3.47;;;;;;;;;;5282075;28;20167;-68
2022/08/23 03:18:17;;;;;;;7.70;3.65;;;;;;;;;;5282136;28;20019;-68
2022/08/23 03:20:48;;;;;;;4.77;3.47;;;;;;;;;;5282254;28;20016;-68
2022/08/23 03:23:20;;;;;;;6.57;3.70;;;;;;;;;;5282588;28;20271;-68
2022/08/23 03:25:51;;;;;;;15.48;4.53;;;;;;;;;;5281143;28;20279;-68
2022/08/23 03:28:23;;;;;;;11.03;4.63;;;;;;;;;;5282530;28;20020;-68
2022/08/23 03:30:54;;;;;;;11.63;4.80;;;;;;;;;;5281410;28;20370;-68
2022/08/23 03:33:25;;;;;;;9.77;4.63;;;;;;;;;;5281905;28;20016;-68
2022/08/23 03:35:58;;;;;;;8.65;4.63;;;;;;;;;;5282422;28;20028;-68
2022/08/23 03:38:29;;;;;;;10.93;5.13;;;;;;;;;;5280760;28;20016;-69
2022/08/23 03:41:00;;;;;;;8.07;4.37;;;;;;;;;;5282256;28;20349;-69
2022/08/23 03:43:32;;;;;;;10.45;4.97;;;;;;;;;;5281560;28;20317;-68
2022/08/23 03:46:04;;;;;;;9.10;4.75;;;;;;;;;;5281355;28;20103;-68
2022/08/23 03:48:36;;;;;;;9.75;5.20;;;;;;;;;;5281554;28;20503;-68
2022/08/23 03:51:07;;;;;;;12.90;5.60;;;;;;;;;;5281330;28;20028;-68
2022/08/23 03:53:38;;;;;;;11.00;5.73;;;;;;;;;;5280802;28;20032;-68
2022/08/23 03:56:09;;;;;;;14.48;5.80;;;;;;;;;;5282042;28;20309;-68
2022/08/23 03:58:40;;;;;;;12.25;5.30;;;;;;;;;;5281316;28;20270;-68
2022/08/23 04:01:12;;;;;;;6.82;4.95;;;;;;;;;;5280983;28;20269;-67
2022/08/23 04:03:43;;;;;;;8.85;4.88;;;;;;;;;;5281197;28;20339;-67
2022/08/23 04:06:15;;;;;;;11.57;5.03;;;;;;;;;;5281216;28;20053;-68
2022/08/23 04:08:46;;;;;;;12.65;5.20;;;;;;;;;;5280980;28;20027;-68
2022/08/23 04:11:17;;;;;;;9.80;4.75;;;;;;;;;;5281634;28;20017;-68
2022/08/23 04:13:49;;;;;;;9.30;5.75;;;;;;;;;;5280199;28;20460;-68
2022/08/23 04:16:20;;;;;;;13.80;5.95;;;;;;;;;;5281680;28;20777;-68
2022/08/23 04:18:51;;;;;;;11.38;5.13;;;;;;;;;;5281004;28;20016;-68
2022/08/23 04:21:23;;;;;;;10.82;5.00;;;;;;;;;;5280754;28;20491;-67
2022/08/23 04:23:54;;;;;;;8.80;4.60;;;;;;;;;;5281279;28;20788;-68
2022/08/23 04:26:25;;;;;;;8.53;5.40;;;;;;;;;;5280773;28;20078;-68
2022/08/23 04:28:56;;;;;;;9.73;5.77;;;;;;;;;;5280579;28;20267;-68
2022/08/23 04:31:28;;;;;;;9.73;6.00;;;;;;;;;;5280883;28;20786;-68
2022/08/23 04:33:59;;;;;;;7.25;6.47;;;;;;;;;;5280518;28;20292;-67
2022/08/23 04:36:31;;;;;;;12.40;6.28;;;;;;;;;;5280690;28;20086;-68
2022/08/23 04:39:03;;;;;;;10.82;5.97;;;;;;;;;;5281216;28;20387;-69
2022/08/23 04:44:24;;;;;;;12.73;5.85;;;;;;;;;;5280839;28;20021;-69
2022/08/23 04:46:55;;;;;;;9.90;5.70;;;;;;;;;;5281062;28;20025;-69
2022/08/23 04:49:26;;;;;;;12.30;5.50;;;;;;;;;;5279750;28;20021;-70
2022/08/23 04:51:58;;;;;;;9.32;6.43;;;;;;;;;;5281166;28;20646;-69
2022/08/23 04:54:30;;;;;;;9.18;5.90;;;;;;;;;;5280593;28;20463;-70
2022/08/23 04:57:01;;;;;;;8.30;5.70;;;;;;;;;;5280366;28;20269;-69
2022/08/23 04:59:33;;;;;;;15.93;5.93;;;;;;;;;;5280700;28;20467;-69
2022/08/23 05:02:04;;;;;;;10.13;6.18;;;;;;;;;;5282367;28;20048;-70
2022/08/23 05:04:35;;;;;;;10.10;7.10;;;;;;;;;;5285100;28;20040;-67
2022/08/23 05:07:06;;;;;;;11.00;6.75;;;;;;;;;;5285446;28;20116;-69
2022/08/23 05:09:37;;;;;;;13.68;7.07;;;;;;;;;;5283987;28;20021;-69
2022/08/23 05:12:09;;;;;;;8.75;6.43;;;;;;;;;;5285213;28;20263;-69
2022/08/23 05:14:40;;;;;;;12.23;6.50;;;;;;;;;;5284485;28;20017;-69
2022/08/23 05:17:11;;;;;;;9.27;6.57;;;;;;;;;;5284407;28;20274;-69
2022/08/23 05:19:42;;;;;;;10.73;6.57;;;;;;;;;;5284559;28;20354;-69
2022/08/23 05:22:13;;;;;;;11.17;6.47;;;;;;;;;;5284970;28;20312;-69
2022/08/23 05:24:44;;;;;;;11.70;6.95;;;;;;;;;;5283357;28;20773;-69
2022/08/23 05:27:16;;;;;;;11.77;6.20;;;;;;;;;;5284943;28;20356;-69
2022/08/23 05:29:47;;;;;;;8.97;6.30;;;;;;;;;;5284455;28;20040;-69
2022/08/23 05:32:19;;;;;;;8.15;6.68;;;;;;;;;;5283873;28;20590;-69
2022/08/23 05:34:50;;;;;;;10.50;5.95;;;;;;;;;;5284040;28;20408;-69
2022/08/23 05:37:21;;;;;;;9.50;5.85;;;;;;;;;;5283786;28;20032;-69
2022/08/23 05:39:52;;;;;;;12.40;6.47;;;;;;;;;;5284153;28;20328;-69
2022/08/23 05:42:23;;;;;;;9.87;5.57;;;;;;;;;;5284358;28;20281;-69
2022/08/23 05:44:56;;;;;;;11.95;7.35;;;;;;;;;;5283665;28;20373;-69
2022/08/23 05:47:28;;;;;;;11.15;6.63;;;;;;;;;;5283784;28;20089;-69
2022/08/23 05:49:59;;;;;;;10.57;7.22;;;;;;;;;;5284353;28;20108;-69
2022/08/23 05:52:30;;;;;;;15.20;6.50;;;;;;;;;;5283002;28;20029;-69
2022/08/23 05:55:01;;;;;;;8.70;5.65;;;;;;;;;;5284369;28;20745;-69
2022/08/23 05:57:36;;;;;;;11.75;5.95;;;;;;;;;;5283943;28;20467;-69
2022/08/23 06:00:11;;;;;;;8.65;5.53;;;;;;;;;;5283470;28;20032;-69
2022/08/23 06:02:43;;;;;;;10.25;5.43;;;;;;;;;;5283657;28;20048;-69
2022/08/23 06:05:15;;;;;;;12.05;5.22;;;;;;;;;;5284209;28;20023;-70
2022/08/23 06:07:46;;;;;;;10.38;5.07;;;;;;;;;;5282857;28;20028;-70
2022/08/23 06:10:19;;;;;;;10.68;5.30;;;;;;;;;;5284362;28;20027;-70
2022/08/23 06:12:50;;;;;;;9.15;5.18;;;;;;;;;;5282015;28;20035;-69
2022/08/23 06:15:21;;;;;;;11.10;5.50;;;;;;;;;;5284325;28;20020;-69
2022/08/23 06:17:53;;;;;;;9.20;5.82;;;;;;;;;;5283242;28;20341;-69
2022/08/23 06:20:24;;;;;;;9.48;5.85;;;;;;;;;;5282943;28;20282;-70
2022/08/23 06:22:55;;;;;;;11.03;5.30;;;;;;;;;;5283656;28;20027;-69
2022/08/23 06:25:27;;;;;;;12.27;5.72;;;;;;;;;;5278976;28;20263;-67
2022/08/23 06:27:58;;;;;;;14.23;6.25;;;;;;;;;;5281662;28;20348;-68
2022/08/23 06:30:29;;;;;;;11.18;5.80;;;;;;;;;;5282489;28;20024;-68
2022/08/23 06:33:00;;;;;;;12.43;7.32;;;;;;;;;;5282946;28;20103;-68
2022/08/23 06:35:32;;;;;;;14.77;6.73;;;;;;;;;;5282035;28;20580;-68
2022/08/23 06:38:03;;;;;;;16.93;8.47;;;;;;;;;;5283243;28;20342;-68
2022/08/23 06:40:34;;;;;;;11.77;6.40;;;;;;;;;;5281966;28;20270;-69
2022/08/23 06:43:05;;;;;;;12.07;6.88;;;;;;;;;;5283412;28;20283;-68
2022/08/23 06:45:36;;;;;;;10.23;6.67;;;;;;;;;;5281085;28;20162;-69
2022/08/23 06:48:08;;;;;;;13.02;7.15;;;;;;;;;;5281753;28;20279;-69
2022/08/23 06:50:40;;;;;;;12.73;7.60;;;;;;;;;;5282764;28;20410;-69
2022/08/23 06:53:11;;;;;;;17.67;7.93;;;;;;;;;;5283201;28;20432;-70
2022/08/23 06:55:42;;;;;;;15.70;7.53;;;;;;;;;;5281652;28;20035;-71
2022/08/23 06:58:13;;;;;;;11.87;7.47;;;;;;;;;;5283012;28;20023;-70
2022/08/23 07:00:44;;;;;;;12.90;8.18;;;;;;;;;;5282503;28;20270;-70
2022/08/23 07:03:15;;;;;;;12.87;8.63;;;;;;;;;;5281954;28;20048;-69
2022/08/23 07:05:46;;;;;;;11.57;8.33;;;;;;;;;;5282320;28;20263;-70
2022/08/23 07:08:18;;;;;;;11.60;9.27;;;;;;;;;;5283154;28;20856;-68
2022/08/23 07:10:49;;;;;;;17.15;9.25;;;;;;;;;;5281468;28;20040;-71
2022/08/23 07:13:21;;;;;;;14.18;9.85;;;;;;;;;;5282562;28;20036;-73
2022/08/23 07:15:56;;;;;;;14.90;8.55;;;;;;;;;;5281606;28;20028;-71
2022/08/23 07:18:28;;;;;;;18.90;9.38;;;;;;;;;;5282213;28;20033;-69
2022/08/23 07:21:01;;;;;;;14.13;8.45;;;;;;;;;;5276673;28;20083;-69
2022/08/23 07:23:33;;;;;;;12.25;8.85;;;;;;;;;;5264084;28;20028;-68
2022/08/23 07:26:12;;;;;;;13.43;9.25;;;;;;;;;;5260834;28;20051;-68
2022/08/23 07:28:44;;;;;;;15.40;8.85;;;;;;;;;;5261336;28;20087;-70
2022/08/23 07:31:25;;;;;;;13.85;8.18;;;;;;;;;;5267786;28;20031;-68
2022/08/23 07:33:58;;;;;;;13.52;9.20;;;;;;;;;;5279678;28;20029;-68
2022/08/23 07:36:30;;;;;;;14.10;7.65;;;;;;;;;;5282113;28;20070;-68
2022/08/23 07:39:03;;;;;;;12.35;8.15;;;;;;;;;;5275977;28;20013;-68
2022/08/23 07:41:34;;;;;;;13.90;8.45;;;;;;;;;;5261020;28;20094;-69
2022/08/23 07:44:08;;;;;;;12.73;8.15;;;;;;;;;;5260737;28;20008;-69
2022/08/23 07:46:40;;;;;;;13.48;9.23;;;;;;;;;;5260735;28;20122;-68
2022/08/23 07:49:12;;;;;;;12.30;8.35;;;;;;;;;;5261401;28;20055;-68
2022/08/23 07:51:48;;;;;;;11.82;8.27;;;;;;;;;;5260091;28;20549;-68
2022/08/23 07:54:20;;;;;;;12.50;8.60;;;;;;;;;;5261389;28;20036;-68
2022/08/23 07:56:51;;;;;;;14.23;8.82;;;;;;;;;;5260645;28;20020;-68
2022/08/23 07:59:22;;;;;;;14.23;8.25;;;;;;;;;;5260517;28;20114;-68
2022/08/23 08:01:53;;;;;;;16.77;8.57;;;;;;;;;;5260402;28;20072;-68
2022/08/23 08:04:25;;;;;;;16.60;9.27;;;;;;;;;;5261005;28;20032;-68
2022/08/23 08:06:58;;;;;;;14.50;8.60;;;;;;;;;;5260394;28;20036;-68
2022/08/23 08:09:29;;;;;;;15.07;9.00;;;;;;;;;;5260449;28;20049;-68
2022/08/23 08:12:01;;;;;;;11.80;8.15;;;;;;;;;;5260397;28;20044;-68
2022/08/23 08:14:32;;;;;;;19.60;8.82;;;;;;;;;;5260193;28;20016;-69
2022/08/23 08:17:03;;;;;;;16.40;8.75;;;;;;;;;;5262087;28;20531;-68
2022/08/23 08:19:35;;;;;;;12.70;7.57;;;;;;;;;;5277729;28;20103;-68
2022/08/23 08:22:06;;;;;;;14.75;8.13;;;;;;;;;;5275371;28;20290;-68
2022/08/23 08:24:38;;;;;;;14.63;8.88;;;;;;;;;;5259514;28;20078;-68
2022/08/23 08:27:09;;;;;;;16.45;8.20;;;;;;;;;;5259210;28;20036;-69
2022/08/23 08:29:42;;;;;;;18.10;8.98;;;;;;;;;;5259388;28;20028;-68
2022/08/23 08:32:13;;;;;;;13.63;7.43;;;;;;;;;;5259845;28;20025;-68
2022/08/23 08:34:44;;;;;;;12.40;6.80;;;;;;;;;;5258611;28;20044;-67
2022/08/23 08:37:16;;;;;;;12.57;7.07;;;;;;;;;;5259534;28;20337;-68
2022/08/23 08:39:47;;;;;;;15.95;7.53;;;;;;;;;;5259331;28;20028;-68
2022/08/23 08:42:25;;;;;;;16.55;7.32;;;;;;;;;;5258958;28;20051;-68
2022/08/23 08:45:01;;;;;;;12.23;6.13;;;;;;;;;;5259958;28;20017;-68
2022/08/23 08:47:36;;;;;;;15.68;5.70;;;;;;;;;;5258366;28;20021;-67
2022/08/23 08:50:13;;;;;;;20.80;6.20;;;;;;;;;;5259970;28;20032;-68
2022/08/23 08:52:47;;;;;;;16.30;5.82;;;;;;;;;;5259319;28;20032;-69
2022/08/23 08:55:26;;;;;;;17.55;5.20;;;;;;;;;;5258950;28;20089;-69
2022/08/23 08:57:58;;;;;;;;;;;;;;;;;;5259860;28;20028;-69
2022/08/23 09:00:31;;;;;;;14.07;3.60;;;;;;;;;;5259101;28;19904;-69
2022/08/23 09:03:13;;;;;;;15.63;4.20;;;;;;;;;;5258346;28;20060;-68
2022/08/23 09:05:58;;;;;;;16.88;4.00;;;;;;;;;;5258915;28;20068;-68
2022/08/23 09:08:52;;;;;;;11.95;5.28;;;;;;;;;;5258445;28;20028;-69
2022/08/23 09:11:44;;;;;;;15.60;4.10;;;;;;;;;;5274291;28;20452;-69
2022/08/23 09:14:22;;;;;;;15.98;3.90;;;;;;;;;;5280195;28;20024;-69
2022/08/23 09:16:59;;;;;;;11.27;2.50;;;;;;;;;;5269507;28;20064;-69
2022/08/23 09:19:32;;;;;;;8.63;1.67;;;;;;;;;;5259016;28;20021;-68
2022/08/23 09:22:10;;;;;;;7.72;1.58;;;;;;;;;;5259862;28;20029;-72
2022/08/23 09:24:42;;;;;;;5.00;1.00;;;;;;;;;;5258781;28;20045;-69
2022/08/23 09:27:13;;;;;;;7.22;1.30;;;;;;;;;;5260073;28;20029;-68
2022/08/23 09:29:55;;;;;;;7.85;1.58;;;;;;;;;;5258647;28;20013;-69
2022/08/23 09:32:34;;;;;;;9.95;2.03;;;;;;;;;;5259423;28;20029;-68
2022/08/23 09:35:14;;;;;;;8.40;1.70;;;;;;;;;;5259824;28;20104;-68
2022/08/23 09:37:57;;;;;;;6.93;1.45;;;;;;;;;;5258109;28;20530;-68
2022/08/23 09:40:31;;;;;;;10.35;2.45;;;;;;;;;;5258261;28;20024;-68
2022/08/23 09:43:03;;;;;;;6.97;2.90;;;;;;;;;;5258813;28;20044;-68
2022/08/23 09:45:35;;;;;;;10.50;2.73;;;;;;;;;;5257753;28;20049;-68
2022/08/23 09:48:10;;;;;;;11.65;2.30;;;;;;;;;;5260223;28;20400;-72
2022/08/23 09:50:55;;;;;;;7.20;1.45;;;;;;;;;;5261919;28;20017;-69
2022/08/23 09:53:27;;;;;;;6.22;1.75;;;;;;;;;;5263183;28;20025;-69
2022/08/23 09:56:10;;;;;;;9.43;1.13;;;;;;;;;;5263516;28;20067;-68
2022/08/23 09:58:43;;;;;;;7.63;0.80;;;;;;;;;;5262106;28;20823;-68
2022/08/23 10:01:18;;;;;;;6.93;0.90;;;;;;;;;;5263474;28;20041;-68
2022/08/23 10:04:09;;;;;;;8.48;1.50;;;;;;;;;;5262603;28;20053;-68
2022/08/23 10:06:42;;;;;;;5.10;0.70;;;;;;;;;;5262101;28;20033;-68
2022/08/23 10:09:28;;;;;;;6.00;0.60;;;;;;;;;;5263166;28;20017;-68
2022/08/23 10:12:00;;;;;;;5.38;0.73;;;;;;;;;;5262399;28;20037;-68
2022/08/23 10:14:34;;;;;;;5.38;0.60;;;;;;;;;;5262502;28;20031;-68
2022/08/23 10:17:13;;;;;;;6.95;0.98;;;;;;;;;;5263343;28;20431;-68
2022/08/23 10:19:47;;;;;;;3.42;0.55;;;;;;;;;;5261821;28;20027;-68
2022/08/23 10:22:27;;;;;;;6.30;0.80;;;;;;;;;;5263153;28;20111;-67
2022/08/23 10:25:04;;;;;;;6.07;0.68;;;;;;;;;;5262958;28;20044;-70
2022/08/23 10:30:39;;;;;;;6.10;0.80;;;;;;;;;;5262725;28;20021;-69
2022/08/23 10:33:29;;;;;;;5.45;0.80;;;;;;;;;;5262051;28;20025;-68
2022/08/23 10:36:15;;;;;;;6.75;0.80;;;;;;;;;;5262978;28;20530;-68
2022/08/23 10:38:46;;;;;;;5.43;0.75;;;;;;;;;;5262117;28;20013;-68
2022/08/23 10:41:20;;;;;;;7.17;1.03;;;;;;;;;;5261689;28;20081;-68
2022/08/23 10:44:00;;;;;;;9.48;1.08;;;;;;;;;;5261965;28;20029;-69
2022/08/23 10:46:36;;;;;;;4.78;0.75;;;;;;;;;;5262072;28;20024;-68
2022/08/23 10:49:10;;;;;;;6.57;0.93;;;;;;;;;;5261844;28;20029;-69
2022/08/23 10:51:47;;;;;;;5.38;0.90;;;;;;;;;;5261848;28;20091;-68
2022/08/23 10:54:33;;;;;;;4.30;1.05;;;;;;;;;;5261424;28;20024;-68
2022/08/23 10:57:05;;;;;;;6.18;0.80;;;;;;;;;;5262527;28;20029;-69
2022/08/23 10:59:36;;;;;;;7.30;0.80;;;;;;;;;;5261630;28;20017;-69
2022/08/23 11:02:18;;;;;;;4.97;0.50;;;;;;;;;;5261283;28;20044;-69
2022/08/23 11:05:02;;;;;;;5.45;0.60;;;;;;;;;;5261855;28;20025;-72
2022/08/23 11:07:40;;;;;;;4.50;0.63;;;;;;;;;;5261481;28;20083;-74
2022/08/23 11:10:14;;;;;;;6.07;0.50;;;;;;;;;;5262481;28;20025;-72
2022/08/23 11:13:00;;;;;;;8.43;0.60;;;;;;;;;;5278297;28;20048;-72
2022/08/23 11:15:31;;;;;;;7.10;0.60;;;;;;;;;;5280657;28;20029;-72
2022/08/23 11:18:05;;;;;;;5.60;0.70;;;;;;;;;;5281920;28;20020;-72
2022/08/23 11:20:48;;;;;;;4.20;0.68;;;;;;;;;;5281388;28;20024;-72
2022/08/23 11:23:38;;;;;;;7.28;0.70;;;;;;;;;;5281283;28;20019;-73
2022/08/23 11:26:21;;;;;;;5.55;0.88;;;;;;;;;;5281914;28;20097;-72
2022/08/23 11:28:54;;;;;;;4.38;0.60;;;;;;;;;;5280668;28;20422;-72
2022/08/23 11:31:28;;;;;;;4.07;0.60;;;;;;;;;;5281232;28;20021;-72
2022/08/23 11:34:09;;;;;;;3.92;0.63;;;;;;;;;;5281711;28;20091;-72
2022/08/23 11:37:00;;;;;;;8.82;0.82;;;;;;;;;;5280252;28;20105;-72
2022/08/23 11:39:52;;;;;;;4.07;0.55;;;;;;;;;;5276545;28;20016;-72
2022/08/23 11:42:25;;;;;;;2.53;0.50;;;;;;;;;;5259727;28;20029;-72
2022/08/23 11:44:56;;;;;;;4.13;0.43;;;;;;;;;;5259831;28;20025;-72
2022/08/23 11:47:37;;;;;;;4.00;0.50;;;;;;;;;;5259534;28;20047;-73
2022/08/23 11:50:20;;;;;;;3.05;0.63;;;;;;;;;;5259334;28;20021;-72
2022/08/23 11:53:05;;;;;;;2.83;0.55;;;;;;;;;;5260121;28;20032;-73
2022/08/23 11:55:45;;;;;;;3.47;0.47;;;;;;;;;;5260265;28;20035;-69
2022/08/23 11:58:17;;;;;;;3.70;0.50;;;;;;;;;;5259571;28;20064;-69
2022/08/23 12:01:00;;;;;;;4.50;0.50;;;;;;;;;;5260097;28;20061;-69
2022/08/23 12:03:51;;;;;;;4.70;0.57;;;;;;;;;;5260012;28;20084;-69
2022/08/23 12:06:43;;;;;;;4.90;0.50;;;;;;;;;;5260048;28;20032;-69
2022/08/23 12:09:23;;;;;;;5.15;0.60;;;;;;;;;;5260433;28;20051;-69
2022/08/23 12:11:54;;;;;;;3.03;0.60;;;;;;;;;;5259079;28;20021;-69
2022/08/23 12:14:41;;;;;;;5.17;0.60;;;;;;;;;;5260314;28;20021;-70
2022/08/23 12:17:12;;;;;;;4.78;0.75;;;;;;;;;;5260816;28;20299;-70
2022/08/23 12:19:53;;;;;;;3.88;0.50;;;;;;;;;;5259148;28;20943;-69
2022/08/23 12:22:29;;;;;;;3.53;0.70;;;;;;;;;;5260665;28;20115;-70
2022/08/23 12:25:03;;;;;;;2.53;0.50;;;;;;;;;;5260707;28;20012;-69
2022/08/23 12:27:41;;;;;;;2.17;0.40;;;;;;;;;;5259361;28;20029;-69
2022/08/23 12:30:19;;;;;;;3.75;0.40;;;;;;;;;;5260670;28;20095;-69
2022/08/23 12:32:55;;;;;;;2.17;0.40;;;;;;;;;;5259351;28;20111;-70
2022/08/23 12:35:32;;;;;;;6.28;0.50;;;;;;;;;;5260183;28;20017;-70
2022/08/23 12:38:24;;;;;;;5.53;0.60;;;;;;;;;;5260511;28;20028;-69
2022/08/23 12:40:55;;;;;;;2.70;0.40;;;;;;;;;;5259627;28;20032;-69
2022/08/23 12:43:28;;;;;;;3.63;0.40;;;;;;;;;;5260035;28;20404;-69
2022/08/23 12:46:00;;;;;;;6.28;0.55;;;;;;;;;;5260477;28;20041;-69
2022/08/23 12:48:32;;;;;;;2.67;0.30;;;;;;;;;;5259025;28;20025;-69
2022/08/23 12:51:09;;;;;;;2.78;0.68;;;;;;;;;;5260727;28;20028;-69
2022/08/23 12:53:42;;;;;;;3.97;0.50;;;;;;;;;;5259210;28;20028;-69
2022/08/23 12:56:16;;;;;;;4.80;0.60;;;;;;;;;;5260536;28;20406;-69
2022/08/23 12:58:52;;;;;;;2.22;0.30;;;;;;;;;;5259890;28;20051;-69
2022/08/23 13:01:26;;;;;;;3.35;0.35;;;;;;;;;;5259145;28;20024;-68
2022/08/23 13:04:03;;;;;;;4.25;0.38;;;;;;;;;;5260462;28;20100;-68
2022/08/23 13:06:40;;;;;;;3.67;0.38;;;;;;;;;;5259179;28;20032;-69
2022/08/23 13:09:13;;;;;;;2.42;0.30;;;;;;;;;;5259442;28;20025;-68
2022/08/23 13:11:46;;;;;;;5.40;0.50;;;;;;;;;;5258799;28;20025;-69
2022/08/23 13:14:26;;;;;;;4.03;0.50;;;;;;;;;;5260496;28;20020;-69
2022/08/23 13:17:16;;;;;;;2.22;0.28;;;;;;;;;;5260322;28;20353;-68
2022/08/23 13:19:49;;;;;;;1.40;0.40;;;;;;;;;;5259588;28;20045;-68
2022/08/23 13:22:22;;;;;;;2.60;0.20;;;;;;;;;;5260194;28;20025;-68
2022/08/23 13:24:58;;;;;;;1.00;0.20;;;;;;;;;;5245800;28;20016;-68
2022/08/23 13:27:31;;;;;;;1.73;0.20;;;;;;;;;;5263561;28;20037;-68
2022/08/23 13:30:08;;;;;;;3.10;0.68;;;;;;;;;;5263151;28;20032;-68
2022/08/23 13:32:39;;;;;;;2.03;0.30;;;;;;;;;;5263441;28;20057;-69
2022/08/23 13:35:30;;;;;;;2.40;0.30;;;;;;;;;;5262391;28;20041;-70
2022/08/23 13:38:16;;;;;;;3.67;0.55;;;;;;;;;;5266243;28;20275;-68
2022/08/23 13:40:48;;;;;;;2.15;0.50;;;;;;;;;;5261938;28;20349;-70
2022/08/23 13:43:27;;;;;;;3.17;0.30;;;;;;;;;;5262434;28;20025;-69
2022/08/23 13:46:09;;;;;;;3.70;0.30;;;;;;;;;;5271799;28;20023;-69
2022/08/23 13:48:53;;;;;;;1.85;0.30;;;;;;;;;;5283085;28;20115;-69
2022/08/23 13:51:24;;;;;;;6.45;0.30;;;;;;;;;;5282628;28;20020;-70
2022/08/23 13:53:57;;;;;;;4.18;0.20;;;;;;;;;;5283106;28;20037;-69
2022/08/23 13:56:31;;;;;;;4.05;0.30;;;;;;;;;;5283431;28;20095;-70
2022/08/23 13:59:21;;;;;;;3.15;0.40;;;;;;;;;;5282644;28;20021;-69
2022/08/23 14:01:52;;;;;;;1.92;0.20;;;;;;;;;;5282384;28;20445;-69
2022/08/23 14:04:23;;;;;;;2.47;0.30;;;;;;;;;;5282348;28;20029;-70
2022/08/23 14:06:54;;;;;;;2.05;0.40;;;;;;;;;;5282845;28;20052;-69
2022/08/23 14:09:25;;;;;;;4.40;0.40;;;;;;;;;;5282204;28;20029;-70
2022/08/23 14:11:58;;;;;;;3.73;0.30;;;;;;;;;;5277905;28;20013;-69
2022/08/23 14:14:30;;;;;;;1.95;0.40;;;;;;;;;;5282326;28;20474;-69
2022/08/23 14:17:01;;;;;;;2.78;0.40;;;;;;;;;;5282400;28;20139;-69
2022/08/23 14:19:33;;;;;;;3.25;0.40;;;;;;;;;;5281744;28;20455;-67
2022/08/23 14:22:04;;;;;;;2.35;0.30;;;;;;;;;;5282735;28;20023;-69
2022/08/23 14:24:35;;;;;;;3.47;0.30;;;;;;;;;;5282024;28;20028;-69
2022/08/23 14:27:07;;;;;;;4.87;0.40;;;;;;;;;;5282250;28;20024;-69
2022/08/23 14:29:38;;;;;;;2.25;0.30;;;;;;;;;;5278821;28;20271;-69
2022/08/23 14:32:09;;;;;;;1.50;0.40;;;;;;;;;;5282012;28;20048;-70
2022/08/23 14:34:40;;;;;;;3.57;0.50;;;;;;;;;;5281471;28;20020;-69
2022/08/23 14:37:11;;;;;;;1.45;0.30;;;;;;;;;;5282346;28;20028;-69
2022/08/23 14:39:42;;;;;;;4.67;0.30;;;;;;;;;;5280911;28;20016;-69
2022/08/23 14:42:17;;;;;;;2.08;0.47;;;;;;;;;;5282574;28;20275;-69
2022/08/23 14:44:48;;;;;;;3.67;0.30;;;;;;;;;;5281837;28;20012;-69
2022/08/23 14:47:19;;;;;;;1.53;0.20;;;;;;;;;;5281517;28;20078;-68
2022/08/23 14:49:51;;;;;;;2.77;0.30;;;;;;;;;;5281891;28;20089;-69
2022/08/23 14:52:22;;;;;;;3.05;0.30;;;;;;;;;;5282447;28;20040;-68
2022/08/23 14:54:53;;;;;;;3.27;0.30;;;;;;;;;;5280984;28;20027;-69
2022/08/23 14:57:25;;;;;;;4.30;0.30;;;;;;;;;;5281823;28;20024;-69
2022/08/23 14:59:56;;;;;;;1.38;0.30;;;;;;;;;;5280861;28;20027;-69
2022/08/23 15:02:28;;;;;;;3.07;0.40;;;;;;;;;;5281492;28;20400;-69
2022/08/23 15:04:59;;;;;;;2.95;0.30;;;;;;;;;;5282211;28;20028;-68
2022/08/23 15:07:30;;;;;;;2.10;0.30;;;;;;;;;;5280251;28;20029;-69
2022/08/23 15:10:01;;;;;;;3.35;0.28;;;;;;;;;;5281339;28;20103;-68
2022/08/23 15:12:33;;;;;;;1.92;0.20;;;;;;;;;;5281295;28;20029;-68
2022/08/23 15:15:05;;;;;;;4.80;0.30;;;;;;;;;;5280937;28;20013;-68
2022/08/23 15:17:42;;;;;;;2.88;0.20;;;;;;;;;;5281802;28;20082;-68
2022/08/23 15:20:13;;;;;;;2.40;0.20;;;;;;;;;;5282702;28;20016;-68
2022/08/23 15:22:44;;;;;;;2.10;0.20;;;;;;;;;;5281180;28;20024;-68
2022/08/23 15:25:16;;;;;;;2.92;0.40;;;;;;;;;;5272784;28;20029;-68
2022/08/23 15:27:49;;;;;;;1.27;0.20;;;;;;;;;;5272734;28;20451;-68
2022/08/23 15:30:20;;;;;;;1.80;0.20;;;;;;;;;;5280976;28;20016;-69